Погода Катембена неделю

Мапуту, Мозамбик

02 - 08 марта
  • 02марта
    Сегодня
    +23°
    +33°
    Практически безоблачно
    ВремяПогодаТемператураВлажностьДавлениеВетер, м/сВероятность осадков
    02:00Ясно и безоблачно+22°C94 %758 мм1.2 м/с5 %
    05:00Ясно и безоблачно+21°C97 %758 мм1.9 м/с3 %
    08:00Небольшая облачность+25°C78 %759 мм1.0 м/с4 %
    11:00Практически безоблачно+31°C59 %758 мм3.0 м/с5 %
    14:00Практически безоблачно+32°C58 %756 мм5.2 м/с5 %
    17:00Ясно и безоблачно+30°C69 %755 мм6.1 м/с5 %
    20:00Ясно и безоблачно+27°C81 %756 мм5.3 м/с5 %
    23:00Ясно и безоблачно+26°C85 %757 мм3.6 м/с5 %
  • 03марта
    Воскресенье
    +23°
    +32°
    Ясно и безоблачно
    ВремяПогодаТемператураВлажностьДавлениеВетер, м/сВероятность осадков
    02:00Практически безоблачно+25°C90 %757 мм1.9 м/с6 %
    05:00Практически безоблачно+24°C96 %757 мм1.5 м/с28 %
    08:00Ясно и безоблачно+27°C81 %759 мм1.1 м/с39 %
    11:00Практически безоблачно+30°C66 %758 мм2.2 м/с35 %
    14:00Ясно и безоблачно+32°C61 %756 мм4.0 м/с20 %
    17:00Ясно и безоблачно+30°C71 %755 мм4.9 м/с6 %
    20:00Практически безоблачно+27°C83 %756 мм4.1 м/с5 %
    23:00Ясно и безоблачно+26°C82 %757 мм2.7 м/с5 %
  • 04марта
    Понедельник
    +23°
    +34°
    Ясно и безоблачно
    ВремяПогодаТемператураВлажностьДавлениеВетер, м/сВероятность осадков
    02:00Ясно и безоблачно+25°C86 %756 мм1.5 м/с29 %
    05:00Небольшая облачность+24°C96 %756 мм1.9 м/с44 %
    08:00Ясно и безоблачно+28°C75 %756 мм1.5 м/с35 %
    11:00Ясно и безоблачно+32°C58 %755 мм2.6 м/с10 %
    14:00Ясно и безоблачно+33°C60 %753 мм5.9 м/с4 %
    17:00Ясно и безоблачно+30°C73 %752 мм7.1 м/с5 %
    20:00Ясно и безоблачно+27°C83 %753 мм5.6 м/с5 %
    23:00Ясно и безоблачно+26°C87 %753 мм5.2 м/с5 %
  • 05марта
    Вторник
    +27°
    +38°
    Ясно и безоблачно
    ВремяПогодаТемператураВлажностьДавлениеВетер, м/сВероятность осадков
    02:00Ясно и безоблачно+25°C89 %753 мм3.0 м/с3 %
    05:00Ясно и безоблачно+24°C86 %753 мм2.4 м/с5 %
    08:00Ясно и безоблачно+28°C70 %753 мм5.5 м/с5 %
    11:00Ясно и безоблачно+35°C51 %752 мм4.4 м/с5 %
    14:00Ясно и безоблачно+38°C55 %749 мм6.6 м/с5 %
    17:00Практически безоблачно+33°C67 %749 мм7.6 м/с5 %
    20:00Ясно и безоблачно+29°C78 %750 мм7.5 м/с3 %
    23:00Ясно и безоблачно+28°C82 %751 мм5.8 м/с9 %
  • 06марта
    Среда
    +24°
    +34°
    Ясно и безоблачно
    ВремяПогодаТемператураВлажностьДавлениеВетер, м/сВероятность осадков
    02:00Практически безоблачно+28°C72 %751 мм3.9 м/с11 %
    05:00Практически безоблачно+28°C75 %752 мм0.7 м/с11 %
    08:00Ясно и безоблачно+30°C71 %754 мм4.0 м/с18 %
    11:00Облачно с прояснениями+32°C60 %754 мм3.5 м/с14 %
    14:00Ясно и безоблачно+33°C62 %753 мм7.4 м/с8 %
    17:00Практически безоблачно+31°C70 %753 мм8.3 м/с5 %
    20:00Ясно и безоблачно+27°C78 %755 мм6.4 м/с22 %
    23:00Облачно с прояснениями, небольшой дождь+26°C80 %756 мм5.5 м/с51 %
Мы используем cookies
Соглашаюсь